sensor_id;sensor_type;location;lat;lon;timestamp;P1;durP1;ratioP1;P2;durP2;ratioP2
15202;SDS011;7702;51.046;5.184;2023-05-07T00:01:46;6.57;;;6.00;;
15202;SDS011;7702;51.046;5.184;2023-05-07T00:04:12;6.77;;;6.17;;
15202;SDS011;7702;51.046;5.184;2023-05-07T00:06:38;7.90;;;7.03;;
15202;SDS011;7702;51.046;5.184;2023-05-07T00:09:04;7.47;;;6.77;;
15202;SDS011;7702;51.046;5.184;2023-05-07T00:11:31;7.10;;;6.50;;
15202;SDS011;7702;51.046;5.184;2023-05-07T00:13:57;7.57;;;6.87;;
15202;SDS011;7702;51.046;5.184;2023-05-07T00:16:23;7.97;;;7.23;;
15202;SDS011;7702;51.046;5.184;2023-05-07T00:18:49;7.77;;;7.10;;
15202;SDS011;7702;51.046;5.184;2023-05-07T00:21:15;8.27;;;7.50;;
15202;SDS011;7702;51.046;5.184;2023-05-07T00:23:41;7.47;;;6.87;;
15202;SDS011;7702;51.046;5.184;2023-05-07T00:26:06;9.07;;;7.03;;
15202;SDS011;7702;51.046;5.184;2023-05-07T00:28:32;8.40;;;7.30;;
15202;SDS011;7702;51.046;5.184;2023-05-07T00:30:58;7.57;;;6.80;;
15202;SDS011;7702;51.046;5.184;2023-05-07T00:33:24;7.50;;;6.80;;
15202;SDS011;7702;51.046;5.184;2023-05-07T00:35:51;7.33;;;6.63;;
15202;SDS011;7702;51.046;5.184;2023-05-07T00:38:17;7.10;;;6.50;;
15202;SDS011;7702;51.046;5.184;2023-05-07T00:40:43;6.47;;;5.97;;
15202;SDS011;7702;51.046;5.184;2023-05-07T00:43:08;7.47;;;6.80;;
15202;SDS011;7702;51.046;5.184;2023-05-07T00:45:34;7.47;;;6.77;;
15202;SDS011;7702;51.046;5.184;2023-05-07T00:48:00;6.90;;;6.20;;
15202;SDS011;7702;51.046;5.184;2023-05-07T00:50:27;6.93;;;6.23;;
15202;SDS011;7702;51.046;5.184;2023-05-07T00:52:54;7.67;;;6.90;;
15202;SDS011;7702;51.046;5.184;2023-05-07T00:55:21;8.83;;;7.03;;
15202;SDS011;7702;51.046;5.184;2023-05-07T00:57:48;7.03;;;6.27;;
15202;SDS011;7702;51.046;5.184;2023-05-07T01:00:15;7.57;;;6.77;;
15202;SDS011;7702;51.046;5.184;2023-05-07T01:02:42;8.73;;;7.83;;
15202;SDS011;7702;51.046;5.184;2023-05-07T01:05:09;9.07;;;8.20;;
15202;SDS011;7702;51.046;5.184;2023-05-07T01:07:41;7.87;;;6.90;;
15202;SDS011;7702;51.046;5.184;2023-05-07T01:10:07;8.00;;;7.37;;
15202;SDS011;7702;51.046;5.184;2023-05-07T01:12:35;7.80;;;7.10;;
15202;SDS011;7702;51.046;5.184;2023-05-07T01:15:02;7.30;;;6.80;;
15202;SDS011;7702;51.046;5.184;2023-05-07T01:17:29;8.53;;;6.93;;
15202;SDS011;7702;51.046;5.184;2023-05-07T01:20:02;8.57;;;7.67;;
15202;SDS011;7702;51.046;5.184;2023-05-07T01:22:30;7.77;;;7.00;;
15202;SDS011;7702;51.046;5.184;2023-05-07T01:24:58;9.20;;;7.83;;
15202;SDS011;7702;51.046;5.184;2023-05-07T01:27:24;7.77;;;7.13;;
15202;SDS011;7702;51.046;5.184;2023-05-07T01:29:50;7.43;;;6.73;;
15202;SDS011;7702;51.046;5.184;2023-05-07T01:32:16;7.40;;;6.70;;
15202;SDS011;7702;51.046;5.184;2023-05-07T01:34:47;8.80;;;7.77;;
15202;SDS011;7702;51.046;5.184;2023-05-07T01:37:14;8.57;;;7.63;;
15202;SDS011;7702;51.046;5.184;2023-05-07T01:39:40;8.77;;;7.93;;
15202;SDS011;7702;51.046;5.184;2023-05-07T01:42:07;8.77;;;8.00;;
15202;SDS011;7702;51.046;5.184;2023-05-07T01:44:33;8.77;;;8.03;;
15202;SDS011;7702;51.046;5.184;2023-05-07T01:46:59;9.53;;;8.47;;
15202;SDS011;7702;51.046;5.184;2023-05-07T01:49:27;8.33;;;7.53;;
15202;SDS011;7702;51.046;5.184;2023-05-07T01:51:53;8.37;;;7.67;;
15202;SDS011;7702;51.046;5.184;2023-05-07T01:54:20;9.63;;;8.83;;
15202;SDS011;7702;51.046;5.184;2023-05-07T01:56:52;9.80;;;8.90;;
15202;SDS011;7702;51.046;5.184;2023-05-07T01:59:18;9.70;;;8.70;;
15202;SDS011;7702;51.046;5.184;2023-05-07T02:01:44;10.20;;;9.23;;
15202;SDS011;7702;51.046;5.184;2023-05-07T02:04:09;9.63;;;8.93;;
15202;SDS011;7702;51.046;5.184;2023-05-07T02:06:35;9.20;;;8.47;;
15202;SDS011;7702;51.046;5.184;2023-05-07T02:09:01;10.03;;;9.17;;
15202;SDS011;7702;51.046;5.184;2023-05-07T02:11:27;11.30;;;10.10;;
15202;SDS011;7702;51.046;5.184;2023-05-07T02:13:53;10.10;;;9.30;;
15202;SDS011;7702;51.046;5.184;2023-05-07T02:16:19;9.90;;;9.10;;
15202;SDS011;7702;51.046;5.184;2023-05-07T02:18:45;11.33;;;10.27;;
15202;SDS011;7702;51.046;5.184;2023-05-07T02:21:10;10.67;;;9.70;;
15202;SDS011;7702;51.046;5.184;2023-05-07T02:23:36;10.43;;;9.63;;
15202;SDS011;7702;51.046;5.184;2023-05-07T02:26:01;10.63;;;9.63;;
15202;SDS011;7702;51.046;5.184;2023-05-07T02:28:29;11.07;;;10.17;;
15202;SDS011;7702;51.046;5.184;2023-05-07T02:30:55;10.53;;;9.63;;
15202;SDS011;7702;51.046;5.184;2023-05-07T02:33:23;12.07;;;10.70;;
15202;SDS011;7702;51.046;5.184;2023-05-07T02:35:49;10.70;;;9.60;;
15202;SDS011;7702;51.046;5.184;2023-05-07T02:38:16;10.73;;;9.73;;
15202;SDS011;7702;51.046;5.184;2023-05-07T02:40:42;10.90;;;9.80;;
15202;SDS011;7702;51.046;5.184;2023-05-07T02:43:08;10.07;;;9.20;;
15202;SDS011;7702;51.046;5.184;2023-05-07T02:45:34;10.10;;;9.20;;
15202;SDS011;7702;51.046;5.184;2023-05-07T02:48:01;10.50;;;9.50;;
15202;SDS011;7702;51.046;5.184;2023-05-07T02:50:26;10.37;;;9.40;;
15202;SDS011;7702;51.046;5.184;2023-05-07T02:52:52;9.90;;;9.10;;
15202;SDS011;7702;51.046;5.184;2023-05-07T02:55:18;11.07;;;9.50;;
15202;SDS011;7702;51.046;5.184;2023-05-07T02:57:44;10.03;;;9.23;;
15202;SDS011;7702;51.046;5.184;2023-05-07T03:00:16;10.60;;;9.53;;
15202;SDS011;7702;51.046;5.184;2023-05-07T03:02:43;9.43;;;8.63;;
15202;SDS011;7702;51.046;5.184;2023-05-07T03:05:09;9.63;;;8.73;;
15202;SDS011;7702;51.046;5.184;2023-05-07T03:07:36;9.20;;;8.30;;
15202;SDS011;7702;51.046;5.184;2023-05-07T03:10:03;9.23;;;8.17;;
15202;SDS011;7702;51.046;5.184;2023-05-07T03:12:29;9.70;;;8.70;;
15202;SDS011;7702;51.046;5.184;2023-05-07T03:14:56;10.00;;;8.73;;
15202;SDS011;7702;51.046;5.184;2023-05-07T03:17:21;8.00;;;7.40;;
15202;SDS011;7702;51.046;5.184;2023-05-07T03:19:47;9.43;;;8.43;;
15202;SDS011;7702;51.046;5.184;2023-05-07T03:22:13;9.70;;;8.80;;
15202;SDS011;7702;51.046;5.184;2023-05-07T03:24:39;9.83;;;8.87;;
15202;SDS011;7702;51.046;5.184;2023-05-07T03:27:05;9.43;;;8.53;;
15202;SDS011;7702;51.046;5.184;2023-05-07T03:29:30;8.63;;;7.83;;
15202;SDS011;7702;51.046;5.184;2023-05-07T03:31:56;8.87;;;8.10;;
15202;SDS011;7702;51.046;5.184;2023-05-07T03:34:22;8.80;;;8.10;;
15202;SDS011;7702;51.046;5.184;2023-05-07T03:36:49;8.30;;;7.60;;
15202;SDS011;7702;51.046;5.184;2023-05-07T03:39:14;9.00;;;7.80;;
15202;SDS011;7702;51.046;5.184;2023-05-07T03:41:40;9.40;;;8.50;;
15202;SDS011;7702;51.046;5.184;2023-05-07T03:44:06;8.67;;;7.93;;
15202;SDS011;7702;51.046;5.184;2023-05-07T03:46:33;9.00;;;7.97;;
15202;SDS011;7702;51.046;5.184;2023-05-07T03:48:59;8.73;;;7.83;;
15202;SDS011;7702;51.046;5.184;2023-05-07T03:51:25;8.93;;;8.23;;
15202;SDS011;7702;51.046;5.184;2023-05-07T03:53:51;8.17;;;7.27;;
15202;SDS011;7702;51.046;5.184;2023-05-07T03:56:22;8.60;;;7.80;;
15202;SDS011;7702;51.046;5.184;2023-05-07T03:58:51;8.57;;;7.80;;
15202;SDS011;7702;51.046;5.184;2023-05-07T04:01:17;7.83;;;7.13;;
15202;SDS011;7702;51.046;5.184;2023-05-07T04:03:43;7.77;;;7.17;;
15202;SDS011;7702;51.046;5.184;2023-05-07T04:06:08;8.20;;;7.50;;
15202;SDS011;7702;51.046;5.184;2023-05-07T04:08:34;9.33;;;8.53;;
15202;SDS011;7702;51.046;5.184;2023-05-07T04:11:00;8.83;;;7.93;;
15202;SDS011;7702;51.046;5.184;2023-05-07T04:13:26;9.53;;;8.50;;
15202;SDS011;7702;51.046;5.184;2023-05-07T04:15:52;9.17;;;8.27;;
15202;SDS011;7702;51.046;5.184;2023-05-07T04:18:20;8.27;;;7.47;;
15202;SDS011;7702;51.046;5.184;2023-05-07T04:20:46;9.33;;;8.23;;
15202;SDS011;7702;51.046;5.184;2023-05-07T04:23:13;9.00;;;8.20;;
15202;SDS011;7702;51.046;5.184;2023-05-07T04:25:38;9.60;;;8.57;;
15202;SDS011;7702;51.046;5.184;2023-05-07T04:28:04;8.97;;;8.07;;
15202;SDS011;7702;51.046;5.184;2023-05-07T04:30:31;9.50;;;8.13;;
15202;SDS011;7702;51.046;5.184;2023-05-07T04:32:56;7.90;;;7.23;;
15202;SDS011;7702;51.046;5.184;2023-05-07T04:35:22;8.80;;;8.00;;
15202;SDS011;7702;51.046;5.184;2023-05-07T04:37:48;8.83;;;7.73;;
15202;SDS011;7702;51.046;5.184;2023-05-07T04:40:14;8.40;;;7.60;;
15202;SDS011;7702;51.046;5.184;2023-05-07T04:42:39;8.37;;;7.67;;
15202;SDS011;7702;51.046;5.184;2023-05-07T04:45:05;8.37;;;7.60;;
15202;SDS011;7702;51.046;5.184;2023-05-07T04:47:31;8.93;;;8.13;;
15202;SDS011;7702;51.046;5.184;2023-05-07T04:49:57;8.93;;;8.13;;
15202;SDS011;7702;51.046;5.184;2023-05-07T04:52:23;8.93;;;8.03;;
15202;SDS011;7702;51.046;5.184;2023-05-07T04:54:49;8.67;;;7.83;;
15202;SDS011;7702;51.046;5.184;2023-05-07T04:57:15;10.80;;;8.63;;
15202;SDS011;7702;51.046;5.184;2023-05-07T04:59:42;10.03;;;8.00;;
15202;SDS011;7702;51.046;5.184;2023-05-07T05:02:09;9.43;;;7.93;;
15202;SDS011;7702;51.046;5.184;2023-05-07T05:04:35;9.17;;;8.27;;
15202;SDS011;7702;51.046;5.184;2023-05-07T05:07:02;9.30;;;8.40;;
15202;SDS011;7702;51.046;5.184;2023-05-07T05:09:31;9.20;;;8.30;;
15202;SDS011;7702;51.046;5.184;2023-05-07T05:11:56;8.00;;;7.30;;
15202;SDS011;7702;51.046;5.184;2023-05-07T05:14:22;11.60;;;7.87;;
15202;SDS011;7702;51.046;5.184;2023-05-07T05:16:48;8.20;;;7.40;;
15202;SDS011;7702;51.046;5.184;2023-05-07T05:19:14;8.30;;;7.40;;
15202;SDS011;7702;51.046;5.184;2023-05-07T05:21:40;9.33;;;8.43;;
15202;SDS011;7702;51.046;5.184;2023-05-07T05:24:06;8.93;;;8.03;;
15202;SDS011;7702;51.046;5.184;2023-05-07T05:26:31;9.27;;;7.73;;
15202;SDS011;7702;51.046;5.184;2023-05-07T05:28:57;8.30;;;7.50;;
15202;SDS011;7702;51.046;5.184;2023-05-07T05:31:23;8.47;;;7.77;;
15202;SDS011;7702;51.046;5.184;2023-05-07T05:33:49;8.50;;;7.70;;
15202;SDS011;7702;51.046;5.184;2023-05-07T05:36:15;8.57;;;7.77;;
15202;SDS011;7702;51.046;5.184;2023-05-07T05:38:41;9.03;;;8.00;;
15202;SDS011;7702;51.046;5.184;2023-05-07T05:41:07;8.83;;;7.93;;
15202;SDS011;7702;51.046;5.184;2023-05-07T05:43:33;9.40;;;8.57;;
15202;SDS011;7702;51.046;5.184;2023-05-07T05:45:58;9.47;;;8.57;;
15202;SDS011;7702;51.046;5.184;2023-05-07T05:48:25;8.20;;;7.40;;
15202;SDS011;7702;51.046;5.184;2023-05-07T05:50:51;8.47;;;7.67;;
15202;SDS011;7702;51.046;5.184;2023-05-07T05:53:16;8.50;;;7.80;;
15202;SDS011;7702;51.046;5.184;2023-05-07T05:55:42;9.10;;;8.30;;
15202;SDS011;7702;51.046;5.184;2023-05-07T05:58:08;8.47;;;7.77;;
15202;SDS011;7702;51.046;5.184;2023-05-07T06:00:34;8.83;;;8.10;;
15202;SDS011;7702;51.046;5.184;2023-05-07T06:03:00;9.87;;;8.60;;
15202;SDS011;7702;51.046;5.184;2023-05-07T06:05:26;9.20;;;8.40;;
15202;SDS011;7702;51.046;5.184;2023-05-07T06:07:51;9.20;;;8.40;;
15202;SDS011;7702;51.046;5.184;2023-05-07T06:10:17;9.33;;;8.00;;
15202;SDS011;7702;51.046;5.184;2023-05-07T06:12:43;8.77;;;7.57;;
15202;SDS011;7702;51.046;5.184;2023-05-07T06:15:10;9.33;;;8.43;;
15202;SDS011;7702;51.046;5.184;2023-05-07T06:17:36;8.60;;;7.80;;
15202;SDS011;7702;51.046;5.184;2023-05-07T06:20:01;8.57;;;7.63;;
15202;SDS011;7702;51.046;5.184;2023-05-07T06:22:27;8.23;;;7.50;;
15202;SDS011;7702;51.046;5.184;2023-05-07T06:24:53;9.03;;;8.17;;
15202;SDS011;7702;51.046;5.184;2023-05-07T06:27:19;8.83;;;8.03;;
15202;SDS011;7702;51.046;5.184;2023-05-07T06:29:45;8.80;;;8.00;;
15202;SDS011;7702;51.046;5.184;2023-05-07T06:32:13;8.83;;;8.00;;
15202;SDS011;7702;51.046;5.184;2023-05-07T06:34:39;8.43;;;7.63;;
15202;SDS011;7702;51.046;5.184;2023-05-07T06:37:06;8.90;;;8.10;;
15202;SDS011;7702;51.046;5.184;2023-05-07T06:39:32;8.90;;;8.03;;
15202;SDS011;7702;51.046;5.184;2023-05-07T06:41:59;9.13;;;8.20;;
15202;SDS011;7702;51.046;5.184;2023-05-07T06:44:25;8.27;;;7.50;;
15202;SDS011;7702;51.046;5.184;2023-05-07T06:46:51;9.27;;;8.57;;
15202;SDS011;7702;51.046;5.184;2023-05-07T06:49:17;8.33;;;7.43;;
15202;SDS011;7702;51.046;5.184;2023-05-07T06:51:43;8.10;;;7.30;;
15202;SDS011;7702;51.046;5.184;2023-05-07T06:54:09;8.03;;;7.23;;
15202;SDS011;7702;51.046;5.184;2023-05-07T06:56:34;9.20;;;7.10;;
15202;SDS011;7702;51.046;5.184;2023-05-07T06:59:01;7.83;;;7.13;;
15202;SDS011;7702;51.046;5.184;2023-05-07T07:01:27;8.13;;;7.43;;
15202;SDS011;7702;51.046;5.184;2023-05-07T07:03:53;7.57;;;6.97;;
15202;SDS011;7702;51.046;5.184;2023-05-07T07:06:19;8.00;;;7.20;;
15202;SDS011;7702;51.046;5.184;2023-05-07T07:08:45;7.50;;;6.80;;
15202;SDS011;7702;51.046;5.184;2023-05-07T07:11:10;7.10;;;6.50;;
15202;SDS011;7702;51.046;5.184;2023-05-07T07:13:36;7.63;;;6.93;;
15202;SDS011;7702;51.046;5.184;2023-05-07T07:16:02;7.00;;;6.30;;
15202;SDS011;7702;51.046;5.184;2023-05-07T07:18:28;7.97;;;6.63;;
15202;SDS011;7702;51.046;5.184;2023-05-07T07:20:54;7.63;;;6.90;;
15202;SDS011;7702;51.046;5.184;2023-05-07T07:23:19;7.73;;;6.53;;
15202;SDS011;7702;51.046;5.184;2023-05-07T07:25:45;7.23;;;6.53;;
15202;SDS011;7702;51.046;5.184;2023-05-07T07:28:11;6.93;;;6.33;;
15202;SDS011;7702;51.046;5.184;2023-05-07T07:30:38;7.03;;;6.43;;
15202;SDS011;7702;51.046;5.184;2023-05-07T07:33:04;6.67;;;5.97;;
15202;SDS011;7702;51.046;5.184;2023-05-07T07:35:30;6.70;;;6.07;;
15202;SDS011;7702;51.046;5.184;2023-05-07T07:37:59;7.53;;;6.00;;
15202;SDS011;7702;51.046;5.184;2023-05-07T07:40:25;9.27;;;7.00;;
15202;SDS011;7702;51.046;5.184;2023-05-07T07:42:51;7.57;;;6.50;;
15202;SDS011;7702;51.046;5.184;2023-05-07T07:45:17;9.50;;;6.00;;
15202;SDS011;7702;51.046;5.184;2023-05-07T07:47:43;6.90;;;6.30;;
15202;SDS011;7702;51.046;5.184;2023-05-07T07:50:09;7.03;;;6.43;;
15202;SDS011;7702;51.046;5.184;2023-05-07T07:52:35;6.83;;;5.93;;
15202;SDS011;7702;51.046;5.184;2023-05-07T07:55:01;7.40;;;6.20;;
15202;SDS011;7702;51.046;5.184;2023-05-07T07:57:27;6.57;;;5.87;;
15202;SDS011;7702;51.046;5.184;2023-05-07T07:59:52;7.93;;;6.60;;
15202;SDS011;7702;51.046;5.184;2023-05-07T08:02:18;6.73;;;6.13;;
15202;SDS011;7702;51.046;5.184;2023-05-07T08:04:44;6.67;;;6.10;;
15202;SDS011;7702;51.046;5.184;2023-05-07T08:07:10;6.87;;;6.13;;
15202;SDS011;7702;51.046;5.184;2023-05-07T08:09:36;7.70;;;6.17;;
15202;SDS011;7702;51.046;5.184;2023-05-07T08:12:03;7.00;;;6.30;;
15202;SDS011;7702;51.046;5.184;2023-05-07T08:14:30;9.00;;;6.43;;
15202;SDS011;7702;51.046;5.184;2023-05-07T08:16:56;5.63;;;5.10;;
15202;SDS011;7702;51.046;5.184;2023-05-07T08:19:22;7.07;;;5.40;;
15202;SDS011;7702;51.046;5.184;2023-05-07T08:21:48;5.60;;;5.13;;
15202;SDS011;7702;51.046;5.184;2023-05-07T08:24:14;7.57;;;5.23;;
15202;SDS011;7702;51.046;5.184;2023-05-07T08:26:40;6.27;;;5.67;;
15202;SDS011;7702;51.046;5.184;2023-05-07T08:29:06;7.17;;;5.77;;
15202;SDS011;7702;51.046;5.184;2023-05-07T08:31:32;6.70;;;5.37;;
15202;SDS011;7702;51.046;5.184;2023-05-07T08:33:58;6.70;;;5.83;;
15202;SDS011;7702;51.046;5.184;2023-05-07T08:36:24;6.00;;;5.47;;
15202;SDS011;7702;51.046;5.184;2023-05-07T08:38:50;5.80;;;5.30;;
15202;SDS011;7702;51.046;5.184;2023-05-07T08:41:17;6.30;;;5.80;;
15202;SDS011;7702;51.046;5.184;2023-05-07T08:43:43;6.73;;;5.77;;
15202;SDS011;7702;51.046;5.184;2023-05-07T08:46:18;6.40;;;5.73;;
15202;SDS011;7702;51.046;5.184;2023-05-07T08:48:48;6.07;;;5.57;;
15202;SDS011;7702;51.046;5.184;2023-05-07T08:51:19;6.77;;;5.70;;
15202;SDS011;7702;51.046;5.184;2023-05-07T08:53:46;7.80;;;6.13;;
15202;SDS011;7702;51.046;5.184;2023-05-07T08:56:16;7.20;;;6.70;;
15202;SDS011;7702;51.046;5.184;2023-05-07T08:58:43;8.30;;;7.33;;
15202;SDS011;7702;51.046;5.184;2023-05-07T09:01:09;7.93;;;7.13;;
15202;SDS011;7702;51.046;5.184;2023-05-07T09:03:38;7.40;;;6.60;;
15202;SDS011;7702;51.046;5.184;2023-05-07T09:06:05;7.60;;;6.63;;
15202;SDS011;7702;51.046;5.184;2023-05-07T09:08:35;7.63;;;6.40;;
15202;SDS011;7702;51.046;5.184;2023-05-07T09:11:01;8.87;;;6.73;;
15202;SDS011;7702;51.046;5.184;2023-05-07T09:13:27;9.33;;;6.90;;
15202;SDS011;7702;51.046;5.184;2023-05-07T09:15:53;8.00;;;6.27;;
15202;SDS011;7702;51.046;5.184;2023-05-07T09:18:19;6.97;;;6.37;;
15202;SDS011;7702;51.046;5.184;2023-05-07T09:20:45;7.57;;;6.63;;
15202;SDS011;7702;51.046;5.184;2023-05-07T09:23:11;7.20;;;6.00;;
15202;SDS011;7702;51.046;5.184;2023-05-07T09:25:37;8.67;;;6.50;;
15202;SDS011;7702;51.046;5.184;2023-05-07T09:28:03;7.30;;;6.53;;
15202;SDS011;7702;51.046;5.184;2023-05-07T09:30:29;7.40;;;6.70;;
15202;SDS011;7702;51.046;5.184;2023-05-07T09:32:56;6.43;;;5.93;;
15202;SDS011;7702;51.046;5.184;2023-05-07T09:35:23;7.30;;;6.63;;
15202;SDS011;7702;51.046;5.184;2023-05-07T09:37:58;7.47;;;6.87;;
15202;SDS011;7702;51.046;5.184;2023-05-07T09:40:28;7.10;;;6.60;;
15202;SDS011;7702;51.046;5.184;2023-05-07T09:42:55;7.57;;;6.87;;
15202;SDS011;7702;51.046;5.184;2023-05-07T09:45:25;7.63;;;6.90;;
15202;SDS011;7702;51.046;5.184;2023-05-07T09:47:55;8.77;;;6.37;;
15202;SDS011;7702;51.046;5.184;2023-05-07T09:50:26;7.67;;;6.97;;
15202;SDS011;7702;51.046;5.184;2023-05-07T09:52:56;7.13;;;6.50;;
15202;SDS011;7702;51.046;5.184;2023-05-07T09:55:22;6.90;;;5.23;;
15202;SDS011;7702;51.046;5.184;2023-05-07T09:57:51;6.33;;;5.73;;
15202;SDS011;7702;51.046;5.184;2023-05-07T10:00:18;7.87;;;7.07;;
15202;SDS011;7702;51.046;5.184;2023-05-07T10:02:45;7.80;;;7.00;;
15202;SDS011;7702;51.046;5.184;2023-05-07T10:05:14;7.70;;;6.90;;
15202;SDS011;7702;51.046;5.184;2023-05-07T10:07:40;6.83;;;6.13;;
15202;SDS011;7702;51.046;5.184;2023-05-07T10:10:06;7.00;;;6.40;;
15202;SDS011;7702;51.046;5.184;2023-05-07T10:12:32;6.07;;;5.63;;
15202;SDS011;7702;51.046;5.184;2023-05-07T10:15:07;6.60;;;6.00;;
15202;SDS011;7702;51.046;5.184;2023-05-07T10:17:35;7.93;;;6.53;;
15202;SDS011;7702;51.046;5.184;2023-05-07T10:20:03;6.97;;;6.27;;
15202;SDS011;7702;51.046;5.184;2023-05-07T10:22:33;10.00;;;8.00;;
15202;SDS011;7702;51.046;5.184;2023-05-07T10:25:31;8.07;;;7.27;;
15202;SDS011;7702;51.046;5.184;2023-05-07T10:27:59;8.33;;;7.50;;
15202;SDS011;7702;51.046;5.184;2023-05-07T10:33:19;9.70;;;8.03;;
15202;SDS011;7702;51.046;5.184;2023-05-07T10:35:48;8.50;;;7.70;;
15202;SDS011;7702;51.046;5.184;2023-05-07T10:38:14;8.73;;;7.40;;
15202;SDS011;7702;51.046;5.184;2023-05-07T10:40:40;9.43;;;8.23;;
15202;SDS011;7702;51.046;5.184;2023-05-07T10:43:06;9.13;;;8.23;;
15202;SDS011;7702;51.046;5.184;2023-05-07T10:45:32;9.53;;;8.63;;
15202;SDS011;7702;51.046;5.184;2023-05-07T10:48:16;9.70;;;8.80;;
15202;SDS011;7702;51.046;5.184;2023-05-07T10:50:43;10.23;;;8.43;;
15202;SDS011;7702;51.046;5.184;2023-05-07T10:55:46;13.20;;;9.17;;
15202;SDS011;7702;51.046;5.184;2023-05-07T10:58:49;8.80;;;7.87;;
15202;SDS011;7702;51.046;5.184;2023-05-07T11:01:15;9.13;;;8.03;;
15202;SDS011;7702;51.046;5.184;2023-05-07T11:04:20;9.77;;;7.90;;
15202;SDS011;7702;51.046;5.184;2023-05-07T11:12:56;9.43;;;8.47;;
15202;SDS011;7702;51.046;5.184;2023-05-07T11:15:33;10.23;;;7.43;;
15202;SDS011;7702;51.046;5.184;2023-05-07T11:18:02;10.40;;;8.03;;
15202;SDS011;7702;51.046;5.184;2023-05-07T11:20:45;10.23;;;9.20;;
15202;SDS011;7702;51.046;5.184;2023-05-07T11:26:03;11.23;;;8.30;;
15202;SDS011;7702;51.046;5.184;2023-05-07T11:28:38;10.40;;;9.13;;
15202;SDS011;7702;51.046;5.184;2023-05-07T11:31:05;12.70;;;9.80;;
15202;SDS011;7702;51.046;5.184;2023-05-07T11:33:32;12.40;;;10.20;;
15202;SDS011;7702;51.046;5.184;2023-05-07T11:35:59;10.47;;;9.47;;
15202;SDS011;7702;51.046;5.184;2023-05-07T11:38:28;9.80;;;8.40;;
15202;SDS011;7702;51.046;5.184;2023-05-07T11:40:56;11.73;;;8.53;;
15202;SDS011;7702;51.046;5.184;2023-05-07T11:43:25;9.93;;;8.27;;
15202;SDS011;7702;51.046;5.184;2023-05-07T11:45:52;8.90;;;8.00;;
15202;SDS011;7702;51.046;5.184;2023-05-07T11:48:18;11.73;;;8.57;;
15202;SDS011;7702;51.046;5.184;2023-05-07T11:50:52;8.60;;;7.70;;
15202;SDS011;7702;51.046;5.184;2023-05-07T11:53:19;11.83;;;8.57;;
15202;SDS011;7702;51.046;5.184;2023-05-07T11:55:45;9.90;;;7.60;;
15202;SDS011;7702;51.046;5.184;2023-05-07T11:58:12;12.17;;;7.57;;
15202;SDS011;7702;51.046;5.184;2023-05-07T12:00:49;9.30;;;7.47;;
15202;SDS011;7702;51.046;5.184;2023-05-07T12:03:18;8.90;;;7.77;;
15202;SDS011;7702;51.046;5.184;2023-05-07T12:05:44;11.00;;;8.70;;
15202;SDS011;7702;51.046;5.184;2023-05-07T12:08:14;12.30;;;9.20;;
15202;SDS011;7702;51.046;5.184;2023-05-07T12:10:43;16.13;;;8.20;;
15202;SDS011;7702;51.046;5.184;2023-05-07T12:13:17;9.23;;;7.43;;
15202;SDS011;7702;51.046;5.184;2023-05-07T12:15:49;8.17;;;7.47;;
15202;SDS011;7702;51.046;5.184;2023-05-07T12:18:16;9.70;;;7.53;;
15202;SDS011;7702;51.046;5.184;2023-05-07T12:20:42;8.03;;;7.33;;
15202;SDS011;7702;51.046;5.184;2023-05-07T12:23:08;8.70;;;7.50;;
15202;SDS011;7702;51.046;5.184;2023-05-07T12:25:40;9.40;;;7.07;;
15202;SDS011;7702;51.046;5.184;2023-05-07T12:28:14;10.53;;;7.67;;
15202;SDS011;7702;51.046;5.184;2023-05-07T12:30:45;10.73;;;7.53;;
15202;SDS011;7702;51.046;5.184;2023-05-07T12:33:15;10.60;;;7.47;;
15202;SDS011;7702;51.046;5.184;2023-05-07T12:35:48;12.13;;;8.40;;
15202;SDS011;7702;51.046;5.184;2023-05-07T12:38:15;9.50;;;7.87;;
15202;SDS011;7702;51.046;5.184;2023-05-07T12:40:45;10.63;;;8.67;;
15202;SDS011;7702;51.046;5.184;2023-05-07T12:45:53;10.33;;;8.73;;
15202;SDS011;7702;51.046;5.184;2023-05-07T12:48:21;12.43;;;10.00;;
15202;SDS011;7702;51.046;5.184;2023-05-07T12:50:50;10.73;;;9.73;;
15202;SDS011;7702;51.046;5.184;2023-05-07T12:53:19;10.27;;;9.17;;
15202;SDS011;7702;51.046;5.184;2023-05-07T12:55:48;10.03;;;8.53;;
15202;SDS011;7702;51.046;5.184;2023-05-07T12:58:18;9.20;;;8.30;;
15202;SDS011;7702;51.046;5.184;2023-05-07T13:00:51;10.47;;;9.23;;
15202;SDS011;7702;51.046;5.184;2023-05-07T13:06:13;9.77;;;7.93;;
15202;SDS011;7702;51.046;5.184;2023-05-07T13:08:40;10.20;;;8.13;;
15202;SDS011;7702;51.046;5.184;2023-05-07T13:11:08;8.63;;;7.67;;
15202;SDS011;7702;51.046;5.184;2023-05-07T13:13:36;10.83;;;7.63;;
15202;SDS011;7702;51.046;5.184;2023-05-07T13:16:03;11.00;;;8.00;;
15202;SDS011;7702;51.046;5.184;2023-05-07T13:18:30;9.27;;;7.50;;
15202;SDS011;7702;51.046;5.184;2023-05-07T13:20:57;8.63;;;7.27;;
15202;SDS011;7702;51.046;5.184;2023-05-07T13:23:23;6.77;;;6.07;;
15202;SDS011;7702;51.046;5.184;2023-05-07T13:25:50;7.43;;;6.60;;
15202;SDS011;7702;51.046;5.184;2023-05-07T13:28:18;9.43;;;6.70;;
15202;SDS011;7702;51.046;5.184;2023-05-07T13:30:45;10.07;;;7.17;;
15202;SDS011;7702;51.046;5.184;2023-05-07T13:33:11;9.20;;;7.20;;
15202;SDS011;7702;51.046;5.184;2023-05-07T13:35:38;8.47;;;7.37;;
15202;SDS011;7702;51.046;5.184;2023-05-07T13:38:03;8.57;;;7.70;;
15202;SDS011;7702;51.046;5.184;2023-05-07T13:40:29;9.13;;;7.07;;
15202;SDS011;7702;51.046;5.184;2023-05-07T13:42:56;9.63;;;7.13;;
15202;SDS011;7702;51.046;5.184;2023-05-07T13:45:23;8.80;;;6.87;;
15202;SDS011;7702;51.046;5.184;2023-05-07T13:47:51;8.90;;;7.60;;
15202;SDS011;7702;51.046;5.184;2023-05-07T13:50:16;7.73;;;6.97;;
15202;SDS011;7702;51.046;5.184;2023-05-07T13:52:42;9.43;;;6.30;;
15202;SDS011;7702;51.046;5.184;2023-05-07T13:55:15;7.33;;;5.57;;
15202;SDS011;7702;51.046;5.184;2023-05-07T13:57:44;6.60;;;4.90;;
15202;SDS011;7702;51.046;5.184;2023-05-07T14:00:11;5.20;;;4.60;;
15202;SDS011;7702;51.046;5.184;2023-05-07T14:02:37;6.77;;;5.03;;
15202;SDS011;7702;51.046;5.184;2023-05-07T14:05:03;6.77;;;5.07;;
15202;SDS011;7702;51.046;5.184;2023-05-07T14:07:29;7.33;;;4.80;;
15202;SDS011;7702;51.046;5.184;2023-05-07T14:09:56;6.37;;;4.50;;
15202;SDS011;7702;51.046;5.184;2023-05-07T14:12:22;5.90;;;5.30;;
15202;SDS011;7702;51.046;5.184;2023-05-07T14:14:49;9.57;;;5.10;;
15202;SDS011;7702;51.046;5.184;2023-05-07T14:17:16;7.20;;;5.13;;
15202;SDS011;7702;51.046;5.184;2023-05-07T14:19:42;6.37;;;5.77;;
15202;SDS011;7702;51.046;5.184;2023-05-07T14:22:08;7.93;;;6.13;;
15202;SDS011;7702;51.046;5.184;2023-05-07T14:24:34;8.97;;;5.97;;
15202;SDS011;7702;51.046;5.184;2023-05-07T14:27:01;7.03;;;5.87;;
15202;SDS011;7702;51.046;5.184;2023-05-07T14:29:27;8.87;;;5.77;;
15202;SDS011;7702;51.046;5.184;2023-05-07T14:31:53;6.73;;;5.30;;
15202;SDS011;7702;51.046;5.184;2023-05-07T14:34:18;6.93;;;5.03;;
15202;SDS011;7702;51.046;5.184;2023-05-07T14:36:44;7.00;;;4.90;;
15202;SDS011;7702;51.046;5.184;2023-05-07T14:39:10;5.90;;;5.30;;
15202;SDS011;7702;51.046;5.184;2023-05-07T14:41:35;6.27;;;5.80;;
15202;SDS011;7702;51.046;5.184;2023-05-07T14:44:01;6.27;;;5.40;;
15202;SDS011;7702;51.046;5.184;2023-05-07T14:46:29;5.50;;;4.60;;
15202;SDS011;7702;51.046;5.184;2023-05-07T14:48:54;4.73;;;3.60;;
15202;SDS011;7702;51.046;5.184;2023-05-07T14:51:21;7.20;;;3.70;;
15202;SDS011;7702;51.046;5.184;2023-05-07T14:53:47;4.70;;;3.80;;
15202;SDS011;7702;51.046;5.184;2023-05-07T14:56:13;5.40;;;3.50;;
15202;SDS011;7702;51.046;5.184;2023-05-07T14:58:39;4.17;;;3.13;;
15202;SDS011;7702;51.046;5.184;2023-05-07T15:01:05;5.37;;;3.90;;
15202;SDS011;7702;51.046;5.184;2023-05-07T15:03:30;7.37;;;4.83;;
15202;SDS011;7702;51.046;5.184;2023-05-07T15:05:56;7.20;;;4.10;;
15202;SDS011;7702;51.046;5.184;2023-05-07T15:08:22;5.67;;;4.33;;
15202;SDS011;7702;51.046;5.184;2023-05-07T15:10:48;5.07;;;4.43;;
15202;SDS011;7702;51.046;5.184;2023-05-07T15:13:14;5.43;;;4.80;;
15202;SDS011;7702;51.046;5.184;2023-05-07T15:15:41;6.70;;;4.13;;
15202;SDS011;7702;51.046;5.184;2023-05-07T15:18:08;6.20;;;3.80;;